JTD24Q LPPR-GCLP
Flight info
| Callsign | JTD24Q |
|---|---|
| Flight time | 2h 8m |
| Altitude | 35000 |
| Route | ASMOV DCT BEXAL DCT SAMAR |
| Aircraft | B738/M-SDE2E3FGHIRWXY/LB1 |
Departure
| Time | 2026-05-03 23:10 |
|---|---|
| Airport | Francisco de Sá Carneiro Airport (LPPR) |
Arrival
| Time | 2026-05-04 01:18 |
|---|---|
| Airport | Gran Canaria Airport (GCLP) |
| Time | Latitude | Longitude | Altitude | Speed | Heading |
|---|---|---|---|---|---|
| 2026-05-03 22:36 | 41.23412 | -8.67199 | 241 ft | 0 kts | 49° |
| 2026-05-03 23:05 | 41.23398 | -8.67220 | 241 ft | 4 kts | 42° |
| 2026-05-03 23:05 | 41.23377 | -8.67240 | 241 ft | 4 kts | 18° |
| 2026-05-03 23:06 | 41.23358 | -8.67242 | 241 ft | 4 kts | 299° |
| 2026-05-03 23:06 | 41.23356 | -8.67237 | 241 ft | 1 kts | 287° |
| 2026-05-03 23:08 | 41.23357 | -8.67253 | 241 ft | 7 kts | 274° |
| 2026-05-03 23:08 | 41.23339 | -8.67386 | 236 ft | 19 kts | 258° |
| 2026-05-03 23:08 | 41.23314 | -8.67550 | 237 ft | 18 kts | 258° |
| 2026-05-03 23:08 | 41.23309 | -8.67708 | 239 ft | 17 kts | 304° |
| 2026-05-03 23:09 | 41.23478 | -8.67777 | 234 ft | 54 kts | 349° |
| 2026-05-03 23:09 | 41.24097 | -8.67941 | 213 ft | 126 kts | 349° |
| 2026-05-03 23:09 | 41.25074 | -8.68163 | 189 ft | 144 kts | 350° |
| 2026-05-03 23:09 | 41.26215 | -8.68442 | 589 ft | 176 kts | 348° |
| 2026-05-03 23:10 | 41.27464 | -8.68756 | 1320 ft | 196 kts | 348° |
| 2026-05-03 23:10 | 41.28785 | -8.69340 | 2069 ft | 208 kts | 324° |
| 2026-05-03 23:10 | 41.29671 | -8.71013 | 2469 ft | 244 kts | 284° |
| 2026-05-03 23:10 | 41.29586 | -8.73321 | 3071 ft | 252 kts | 253° |
| 2026-05-03 23:11 | 41.28581 | -8.75165 | 3568 ft | 253 kts | 216° |
| 2026-05-03 23:11 | 41.26923 | -8.76177 | 4159 ft | 268 kts | 201° |
| 2026-05-03 23:11 | 41.25149 | -8.76993 | 4985 ft | 270 kts | 201° |
| 2026-05-03 23:11 | 41.23382 | -8.77803 | 5818 ft | 273 kts | 201° |
| 2026-05-03 23:12 | 41.21587 | -8.78654 | 6672 ft | 274 kts | 202° |
| 2026-05-03 23:12 | 41.19787 | -8.79539 | 7449 ft | 277 kts | 202° |
| 2026-05-03 23:12 | 41.17975 | -8.80457 | 8243 ft | 279 kts | 203° |
| 2026-05-03 23:12 | 41.16152 | -8.81401 | 9041 ft | 282 kts | 203° |
| 2026-05-03 23:13 | 41.14341 | -8.82355 | 9746 ft | 285 kts | 204° |
| 2026-05-03 23:13 | 41.12495 | -8.83337 | 10038 ft | 285 kts | 204° |
| 2026-05-03 23:13 | 41.10651 | -8.84327 | 10469 ft | 286 kts | 204° |
| 2026-05-03 23:13 | 41.08778 | -8.85340 | 10946 ft | 300 kts | 204° |
| 2026-05-03 23:14 | 41.06765 | -8.86435 | 11113 ft | 323 kts | 204° |
| 2026-05-03 23:14 | 41.04616 | -8.87606 | 11314 ft | 345 kts | 204° |
| 2026-05-03 23:14 | 41.02355 | -8.88840 | 11471 ft | 365 kts | 204° |
| 2026-05-03 23:14 | 40.99952 | -8.90149 | 11703 ft | 381 kts | 204° |
| 2026-05-03 23:15 | 40.97466 | -8.91456 | 12259 ft | 386 kts | 203° |
| 2026-05-03 23:15 | 40.94952 | -8.92752 | 12965 ft | 388 kts | 203° |
| 2026-05-03 23:15 | 40.92437 | -8.94059 | 13681 ft | 389 kts | 203° |
| 2026-05-03 23:15 | 40.89904 | -8.95393 | 14303 ft | 392 kts | 204° |
| 2026-05-03 23:16 | 40.87366 | -8.96746 | 14873 ft | 395 kts | 204° |
| 2026-05-03 23:16 | 40.84814 | -8.98118 | 15441 ft | 397 kts | 204° |
| 2026-05-03 23:16 | 40.82275 | -8.99490 | 16008 ft | 400 kts | 204° |
| 2026-05-03 23:16 | 40.79689 | -9.00893 | 16575 ft | 402 kts | 204° |
| 2026-05-03 23:17 | 40.77092 | -9.02302 | 17119 ft | 405 kts | 204° |
| 2026-05-03 23:17 | 40.74462 | -9.03729 | 17671 ft | 408 kts | 204° |
| 2026-05-03 23:17 | 40.71819 | -9.05163 | 18213 ft | 411 kts | 205° |
| 2026-05-03 23:17 | 40.69196 | -9.06584 | 18689 ft | 413 kts | 205° |
| 2026-05-03 23:18 | 40.66534 | -9.08026 | 19197 ft | 414 kts | 205° |
| 2026-05-03 23:18 | 40.63854 | -9.09475 | 19705 ft | 415 kts | 205° |
| 2026-05-03 23:18 | 40.61160 | -9.10932 | 20045 ft | 421 kts | 205° |
| 2026-05-03 23:18 | 40.58470 | -9.12385 | 20499 ft | 422 kts | 205° |
| 2026-05-03 23:19 | 40.55749 | -9.13853 | 21018 ft | 422 kts | 205° |
| 2026-05-03 23:19 | 40.53022 | -9.15322 | 21492 ft | 423 kts | 205° |
| 2026-05-03 23:19 | 40.50292 | -9.16792 | 21996 ft | 423 kts | 205° |
| 2026-05-03 23:19 | 40.47556 | -9.18264 | 22416 ft | 425 kts | 205° |
| 2026-05-03 23:20 | 40.44804 | -9.19743 | 22819 ft | 427 kts | 205° |
| 2026-05-03 23:20 | 40.42049 | -9.21224 | 23220 ft | 429 kts | 205° |
| 2026-05-03 23:20 | 40.39315 | -9.22691 | 23623 ft | 430 kts | 205° |
| 2026-05-03 23:20 | 40.36527 | -9.24186 | 23968 ft | 432 kts | 206° |
| 2026-05-03 23:21 | 40.33746 | -9.25676 | 24272 ft | 433 kts | 206° |
| 2026-05-03 23:21 | 40.30936 | -9.27179 | 24576 ft | 435 kts | 206° |
| 2026-05-03 23:21 | 40.28120 | -9.28685 | 24871 ft | 437 kts | 206° |
| 2026-05-03 23:21 | 40.25294 | -9.30195 | 25166 ft | 438 kts | 206° |
| 2026-05-03 23:22 | 40.19656 | -9.33203 | 25729 ft | 442 kts | 206° |
| 2026-05-03 23:22 | 40.16792 | -9.34728 | 26048 ft | 442 kts | 206° |
| 2026-05-03 23:22 | 40.13949 | -9.36241 | 26470 ft | 440 kts | 206° |
| 2026-05-03 23:23 | 40.11117 | -9.37745 | 26937 ft | 437 kts | 206° |
| 2026-05-03 23:23 | 40.08342 | -9.39218 | 27332 ft | 435 kts | 206° |
| 2026-05-03 23:23 | 40.05548 | -9.40700 | 27817 ft | 432 kts | 206° |
| 2026-05-03 23:23 | 40.02773 | -9.42171 | 28240 ft | 430 kts | 206° |
| 2026-05-03 23:24 | 39.99994 | -9.43644 | 28585 ft | 431 kts | 206° |
| 2026-05-03 23:24 | 39.97213 | -9.45118 | 28936 ft | 430 kts | 206° |
| 2026-05-03 23:24 | 39.94440 | -9.46586 | 29362 ft | 429 kts | 206° |
| 2026-05-03 23:24 | 39.91660 | -9.48056 | 29626 ft | 431 kts | 206° |
| 2026-05-03 23:25 | 39.88870 | -9.49530 | 29951 ft | 432 kts | 206° |
| 2026-05-03 23:25 | 39.86095 | -9.50994 | 30318 ft | 429 kts | 207° |
| 2026-05-03 23:25 | 39.83325 | -9.52453 | 30695 ft | 427 kts | 207° |
| 2026-05-03 23:25 | 39.80602 | -9.53886 | 30970 ft | 427 kts | 207° |
| 2026-05-03 23:26 | 39.77841 | -9.55340 | 31198 ft | 428 kts | 207° |
| 2026-05-03 23:26 | 39.75074 | -9.56795 | 31471 ft | 428 kts | 207° |
| 2026-05-03 23:26 | 39.72305 | -9.58250 | 31776 ft | 427 kts | 207° |
| 2026-05-03 23:26 | 39.69547 | -9.59698 | 32067 ft | 427 kts | 207° |
| 2026-05-03 23:27 | 39.66821 | -9.61127 | 32303 ft | 427 kts | 207° |
| 2026-05-03 23:27 | 39.64063 | -9.62572 | 32569 ft | 427 kts | 207° |
| 2026-05-03 23:27 | 39.61306 | -9.64016 | 32856 ft | 426 kts | 207° |
| 2026-05-03 23:27 | 39.58557 | -9.65452 | 33213 ft | 424 kts | 207° |
| 2026-05-03 23:28 | 39.55823 | -9.66881 | 33470 ft | 424 kts | 207° |
| 2026-05-03 23:28 | 39.53082 | -9.68313 | 33677 ft | 425 kts | 207° |
| 2026-05-03 23:28 | 39.50337 | -9.69746 | 33943 ft | 424 kts | 207° |
| 2026-05-03 23:28 | 39.47599 | -9.71173 | 34204 ft | 424 kts | 207° |
| 2026-05-03 23:29 | 39.44859 | -9.72600 | 34402 ft | 424 kts | 207° |
| 2026-05-03 23:29 | 39.42111 | -9.74031 | 34542 ft | 425 kts | 207° |
| 2026-05-03 23:29 | 39.39361 | -9.75461 | 34676 ft | 426 kts | 207° |
| 2026-05-03 23:29 | 39.36656 | -9.76865 | 34995 ft | 422 kts | 207° |
| 2026-05-03 23:30 | 39.31161 | -9.79718 | 35103 ft | 429 kts | 207° |
| 2026-05-03 23:30 | 39.25575 | -9.82616 | 35100 ft | 434 kts | 207° |
| 2026-05-03 23:31 | 39.19953 | -9.85521 | 35100 ft | 436 kts | 207° |
| 2026-05-03 23:31 | 39.14346 | -9.88414 | 35086 ft | 437 kts | 207° |
| 2026-05-03 23:32 | 39.08687 | -9.91328 | 35093 ft | 437 kts | 207° |
| 2026-05-03 23:32 | 39.03039 | -9.94232 | 35095 ft | 436 kts | 207° |
| 2026-05-03 23:33 | 38.97446 | -9.97104 | 35097 ft | 435 kts | 207° |
| 2026-05-03 23:33 | 38.91821 | -9.99987 | 35057 ft | 433 kts | 208° |
| 2026-05-03 23:34 | 38.86265 | -10.02829 | 35089 ft | 431 kts | 208° |
| 2026-05-03 23:34 | 38.80689 | -10.05678 | 35102 ft | 429 kts | 208° |
| 2026-05-03 23:35 | 38.75138 | -10.08510 | 35104 ft | 429 kts | 208° |
| 2026-05-03 23:35 | 38.69629 | -10.11316 | 35103 ft | 428 kts | 208° |
| 2026-05-03 23:36 | 38.64087 | -10.14133 | 35098 ft | 427 kts | 208° |
| 2026-05-03 23:36 | 38.58555 | -10.16941 | 35102 ft | 427 kts | 208° |
| 2026-05-03 23:37 | 38.53062 | -10.19724 | 35111 ft | 426 kts | 208° |
| 2026-05-03 23:37 | 38.47537 | -10.22519 | 35109 ft | 427 kts | 208° |
| 2026-05-03 23:38 | 38.41999 | -10.25316 | 35098 ft | 427 kts | 208° |
| 2026-05-03 23:38 | 38.36502 | -10.28087 | 35106 ft | 427 kts | 208° |
| 2026-05-03 23:39 | 38.30954 | -10.30879 | 35113 ft | 427 kts | 208° |
| 2026-05-03 23:39 | 38.25420 | -10.33660 | 35114 ft | 427 kts | 208° |
| 2026-05-03 23:40 | 38.19903 | -10.36428 | 35108 ft | 428 kts | 208° |
| 2026-05-03 23:40 | 38.14358 | -10.39204 | 35102 ft | 426 kts | 209° |
| 2026-05-03 23:41 | 38.08868 | -10.41949 | 35116 ft | 426 kts | 209° |
| 2026-05-03 23:41 | 38.03351 | -10.44704 | 35116 ft | 425 kts | 209° |
| 2026-05-03 23:42 | 37.97841 | -10.47451 | 35117 ft | 425 kts | 209° |
| 2026-05-03 23:42 | 37.92346 | -10.50185 | 35117 ft | 425 kts | 209° |
| 2026-05-03 23:43 | 37.86827 | -10.52927 | 35117 ft | 425 kts | 209° |
| 2026-05-03 23:43 | 37.81305 | -10.55667 | 35118 ft | 425 kts | 209° |
| 2026-05-03 23:44 | 37.75819 | -10.58383 | 35111 ft | 426 kts | 209° |
| 2026-05-03 23:44 | 37.71215 | -10.60661 | 35102 ft | 427 kts | 209° |
| 2026-05-03 23:45 | 37.64785 | -10.63835 | 35112 ft | 426 kts | 208° |
| 2026-05-03 23:45 | 37.60144 | -10.66122 | 35118 ft | 426 kts | 208° |
| 2026-05-03 23:46 | 37.54641 | -10.68831 | 35123 ft | 427 kts | 208° |
| 2026-05-03 23:46 | 37.49094 | -10.71556 | 35123 ft | 427 kts | 208° |
| 2026-05-03 23:47 | 37.43582 | -10.74260 | 35115 ft | 426 kts | 208° |
| 2026-05-03 23:47 | 37.38082 | -10.76954 | 35114 ft | 426 kts | 208° |
| 2026-05-03 23:48 | 37.32559 | -10.79655 | 35124 ft | 425 kts | 208° |
| 2026-05-03 23:48 | 37.27042 | -10.82350 | 35124 ft | 425 kts | 208° |
| 2026-05-03 23:49 | 37.21520 | -10.85042 | 35097 ft | 425 kts | 208° |
| 2026-05-03 23:49 | 37.16009 | -10.87724 | 35120 ft | 424 kts | 208° |
| 2026-05-03 23:50 | 37.10527 | -10.90389 | 35132 ft | 425 kts | 208° |
| 2026-05-03 23:50 | 37.04998 | -10.93073 | 35131 ft | 426 kts | 208° |
| 2026-05-03 23:51 | 36.99445 | -10.95763 | 35123 ft | 427 kts | 208° |
| 2026-05-03 23:51 | 36.93926 | -10.98432 | 35122 ft | 427 kts | 208° |
| 2026-05-03 23:52 | 36.88361 | -11.01120 | 35124 ft | 427 kts | 208° |
| 2026-05-03 23:52 | 36.82844 | -11.03780 | 35132 ft | 427 kts | 208° |
| 2026-05-03 23:53 | 36.77287 | -11.06455 | 35129 ft | 427 kts | 208° |
| 2026-05-03 23:53 | 36.71721 | -11.09131 | 35130 ft | 427 kts | 208° |
| 2026-05-03 23:54 | 36.66186 | -11.11786 | 35119 ft | 426 kts | 208° |
| 2026-05-03 23:54 | 36.60688 | -11.14421 | 35130 ft | 425 kts | 208° |
| 2026-05-03 23:55 | 36.55175 | -11.17059 | 35131 ft | 424 kts | 208° |
| 2026-05-03 23:55 | 36.49659 | -11.19695 | 35134 ft | 424 kts | 208° |
| 2026-05-03 23:56 | 36.44151 | -11.22323 | 35118 ft | 423 kts | 208° |
| 2026-05-03 23:56 | 36.38678 | -11.24930 | 35132 ft | 423 kts | 208° |
| 2026-05-03 23:57 | 36.33161 | -11.27554 | 35137 ft | 423 kts | 208° |
| 2026-05-03 23:57 | 36.27676 | -11.30159 | 35136 ft | 424 kts | 208° |
| 2026-05-03 23:58 | 36.22157 | -11.32777 | 35127 ft | 424 kts | 208° |
| 2026-05-03 23:58 | 36.16657 | -11.35381 | 35139 ft | 425 kts | 208° |
| 2026-05-03 23:59 | 36.11119 | -11.37999 | 35142 ft | 426 kts | 208° |
| 2026-05-03 23:59 | 36.05566 | -11.40621 | 35136 ft | 427 kts | 208° |
| 2026-05-04 00:00 | 36.00044 | -11.43225 | 35146 ft | 427 kts | 208° |
| 2026-05-04 00:00 | 35.94551 | -11.46012 | 35104 ft | 423 kts | 212° |
| 2026-05-04 00:01 | 35.89309 | -11.49294 | 35129 ft | 422 kts | 214° |
| 2026-05-04 00:01 | 35.84115 | -11.52611 | 35139 ft | 422 kts | 214° |
| 2026-05-04 00:02 | 35.78873 | -11.55919 | 35139 ft | 423 kts | 213° |
| 2026-05-04 00:02 | 35.73644 | -11.59186 | 35140 ft | 423 kts | 213° |
| 2026-05-04 00:03 | 35.68380 | -11.62460 | 35130 ft | 423 kts | 213° |
| 2026-05-04 00:03 | 35.63122 | -11.65724 | 35131 ft | 423 kts | 213° |
| 2026-05-04 00:04 | 35.57898 | -11.68962 | 35142 ft | 423 kts | 213° |
| 2026-05-04 00:04 | 35.52620 | -11.72229 | 35144 ft | 423 kts | 213° |
| 2026-05-04 00:05 | 35.47377 | -11.75469 | 35145 ft | 424 kts | 213° |
| 2026-05-04 00:05 | 35.42108 | -11.78721 | 35149 ft | 424 kts | 213° |
| 2026-05-04 00:06 | 35.36827 | -11.81976 | 35146 ft | 424 kts | 213° |
| 2026-05-04 00:06 | 35.31561 | -11.85216 | 35141 ft | 423 kts | 213° |
| 2026-05-04 00:07 | 35.26314 | -11.88440 | 35144 ft | 423 kts | 213° |
| 2026-05-04 00:07 | 35.21034 | -11.91680 | 35146 ft | 423 kts | 213° |
| 2026-05-04 00:08 | 35.15794 | -11.94890 | 35106 ft | 423 kts | 213° |
| 2026-05-04 00:08 | 35.10527 | -11.98111 | 35131 ft | 422 kts | 213° |
| 2026-05-04 00:09 | 35.05282 | -12.01316 | 35140 ft | 421 kts | 213° |
| 2026-05-04 00:09 | 35.00054 | -12.04505 | 35145 ft | 421 kts | 213° |
| 2026-05-04 00:10 | 34.94804 | -12.07704 | 35147 ft | 422 kts | 213° |
| 2026-05-04 00:10 | 34.89542 | -12.10906 | 35148 ft | 423 kts | 213° |
| 2026-05-04 00:11 | 34.84311 | -12.14082 | 35141 ft | 422 kts | 213° |
| 2026-05-04 00:11 | 34.79052 | -12.17271 | 35149 ft | 421 kts | 213° |
| 2026-05-04 00:12 | 34.73801 | -12.20452 | 35148 ft | 421 kts | 213° |
| 2026-05-04 00:12 | 34.68587 | -12.23605 | 35147 ft | 421 kts | 213° |
| 2026-05-04 00:13 | 34.63325 | -12.26783 | 35150 ft | 421 kts | 213° |
| 2026-05-04 00:13 | 34.58087 | -12.29942 | 35142 ft | 420 kts | 213° |
| 2026-05-04 00:14 | 34.52878 | -12.33079 | 35146 ft | 420 kts | 213° |
| 2026-05-04 00:14 | 34.47627 | -12.36237 | 35147 ft | 420 kts | 213° |
| 2026-05-04 00:15 | 34.42404 | -12.39374 | 35150 ft | 420 kts | 213° |
| 2026-05-04 00:15 | 34.37165 | -12.42516 | 35145 ft | 420 kts | 212° |
| 2026-05-04 00:16 | 34.31926 | -12.45653 | 35142 ft | 419 kts | 212° |
| 2026-05-04 00:16 | 34.26690 | -12.48783 | 35152 ft | 419 kts | 212° |
| 2026-05-04 00:17 | 34.21491 | -12.51889 | 35151 ft | 419 kts | 212° |
| 2026-05-04 00:17 | 34.16284 | -12.54994 | 35143 ft | 419 kts | 212° |
| 2026-05-04 00:18 | 34.11046 | -12.58113 | 35148 ft | 418 kts | 212° |
| 2026-05-04 00:18 | 34.05823 | -12.61220 | 35139 ft | 418 kts | 212° |
| 2026-05-04 00:19 | 34.00632 | -12.64302 | 35143 ft | 418 kts | 212° |
| 2026-05-04 00:19 | 33.95403 | -12.67404 | 35148 ft | 418 kts | 212° |
| 2026-05-04 00:20 | 33.90195 | -12.70489 | 35148 ft | 418 kts | 212° |
| 2026-05-04 00:20 | 33.84955 | -12.73588 | 35148 ft | 418 kts | 212° |
| 2026-05-04 00:21 | 33.79752 | -12.76661 | 35124 ft | 419 kts | 212° |
| 2026-05-04 00:21 | 33.74497 | -12.79761 | 35142 ft | 420 kts | 212° |
| 2026-05-04 00:22 | 33.69247 | -12.82853 | 35150 ft | 420 kts | 212° |
| 2026-05-04 00:22 | 33.64011 | -12.85934 | 35147 ft | 421 kts | 212° |
| 2026-05-04 00:23 | 33.58728 | -12.89036 | 35148 ft | 422 kts | 212° |
| 2026-05-04 00:23 | 33.53449 | -12.92133 | 35116 ft | 422 kts | 212° |
| 2026-05-04 00:24 | 33.48193 | -12.95212 | 35140 ft | 423 kts | 212° |
| 2026-05-04 00:24 | 33.42897 | -12.98311 | 35150 ft | 424 kts | 212° |
| 2026-05-04 00:25 | 33.37584 | -13.01415 | 35150 ft | 424 kts | 212° |
| 2026-05-04 00:25 | 33.32302 | -13.04496 | 35150 ft | 425 kts | 212° |
| 2026-05-04 00:26 | 33.26977 | -13.07598 | 35147 ft | 425 kts | 212° |
| 2026-05-04 00:26 | 33.21658 | -13.10693 | 35149 ft | 425 kts | 212° |
| 2026-05-04 00:27 | 33.16356 | -13.13774 | 35142 ft | 426 kts | 212° |
| 2026-05-04 00:27 | 33.11004 | -13.16879 | 35150 ft | 427 kts | 212° |
| 2026-05-04 00:28 | 33.05672 | -13.19969 | 35149 ft | 428 kts | 212° |
| 2026-05-04 00:28 | 33.00299 | -13.23078 | 35144 ft | 428 kts | 212° |
| 2026-05-04 00:29 | 32.94920 | -13.26186 | 35132 ft | 428 kts | 212° |
| 2026-05-04 00:29 | 32.89573 | -13.29272 | 35139 ft | 429 kts | 211° |
| 2026-05-04 00:30 | 32.84199 | -13.32369 | 35153 ft | 429 kts | 211° |
| 2026-05-04 00:30 | 32.78808 | -13.35472 | 35149 ft | 429 kts | 211° |
| 2026-05-04 00:31 | 32.73466 | -13.38542 | 35147 ft | 429 kts | 211° |
| 2026-05-04 00:31 | 32.68078 | -13.41635 | 35147 ft | 429 kts | 211° |
| 2026-05-04 00:32 | 32.62692 | -13.44722 | 35147 ft | 429 kts | 211° |
| 2026-05-04 00:32 | 32.57341 | -13.47785 | 35144 ft | 429 kts | 211° |
| 2026-05-04 00:33 | 32.49282 | -13.52391 | 35149 ft | 429 kts | 211° |
| 2026-05-04 00:34 | 32.44768 | -13.54966 | 35147 ft | 429 kts | 211° |
| 2026-05-04 00:34 | 32.39411 | -13.58019 | 35137 ft | 429 kts | 211° |
| 2026-05-04 00:35 | 32.34045 | -13.61073 | 35142 ft | 429 kts | 211° |
| 2026-05-04 00:35 | 32.28642 | -13.64145 | 35146 ft | 430 kts | 211° |
| 2026-05-04 00:36 | 32.23268 | -13.67196 | 35146 ft | 430 kts | 211° |
| 2026-05-04 00:36 | 32.17870 | -13.70255 | 35146 ft | 430 kts | 211° |
| 2026-05-04 00:37 | 32.12467 | -13.73314 | 35124 ft | 430 kts | 211° |
| 2026-05-04 00:37 | 32.07059 | -13.76372 | 35136 ft | 430 kts | 211° |
| 2026-05-04 00:38 | 32.01690 | -13.79404 | 35143 ft | 430 kts | 211° |
| 2026-05-04 00:38 | 31.96270 | -13.82460 | 35143 ft | 431 kts | 211° |
| 2026-05-04 00:39 | 31.90847 | -13.85515 | 35146 ft | 431 kts | 211° |
| 2026-05-04 00:39 | 31.85453 | -13.88549 | 35145 ft | 432 kts | 211° |
| 2026-05-04 00:40 | 31.80014 | -13.91604 | 35142 ft | 433 kts | 211° |
| 2026-05-04 00:40 | 31.74570 | -13.94658 | 35145 ft | 434 kts | 211° |
| 2026-05-04 00:41 | 31.69146 | -13.97697 | 35144 ft | 434 kts | 211° |
| 2026-05-04 00:41 | 31.63679 | -14.00755 | 35145 ft | 434 kts | 211° |
| 2026-05-04 00:42 | 31.58208 | -14.03812 | 35148 ft | 435 kts | 211° |
| 2026-05-04 00:42 | 31.52747 | -14.06859 | 35136 ft | 434 kts | 211° |
| 2026-05-04 00:43 | 31.47325 | -14.09881 | 35137 ft | 433 kts | 211° |
| 2026-05-04 00:43 | 31.41868 | -14.12918 | 35144 ft | 433 kts | 211° |
| 2026-05-04 00:44 | 31.36423 | -14.15945 | 35147 ft | 433 kts | 211° |
| 2026-05-04 00:44 | 31.31022 | -14.18944 | 35143 ft | 433 kts | 211° |
| 2026-05-04 00:45 | 31.25583 | -14.21960 | 35129 ft | 432 kts | 211° |
| 2026-05-04 00:45 | 31.20132 | -14.24979 | 35143 ft | 431 kts | 211° |
| 2026-05-04 00:46 | 31.14697 | -14.27985 | 35145 ft | 431 kts | 210° |
| 2026-05-04 00:46 | 31.09282 | -14.30976 | 35145 ft | 431 kts | 210° |
| 2026-05-04 00:47 | 31.03883 | -14.33955 | 35144 ft | 432 kts | 210° |
| 2026-05-04 00:47 | 30.98439 | -14.36955 | 35125 ft | 432 kts | 210° |
| 2026-05-04 00:48 | 30.93008 | -14.39944 | 35138 ft | 430 kts | 210° |
| 2026-05-04 00:48 | 30.87543 | -14.42732 | 35143 ft | 434 kts | 205° |
| 2026-05-04 00:49 | 30.81764 | -14.44859 | 35145 ft | 436 kts | 202° |
| 2026-05-04 00:49 | 30.75938 | -14.46869 | 35138 ft | 436 kts | 202° |
| 2026-05-04 00:50 | 30.70144 | -14.48932 | 35116 ft | 435 kts | 203° |
| 2026-05-04 00:50 | 30.64394 | -14.51028 | 35133 ft | 435 kts | 203° |
| 2026-05-04 00:51 | 30.58627 | -14.53147 | 35145 ft | 434 kts | 203° |
| 2026-05-04 00:51 | 30.52844 | -14.55271 | 35142 ft | 435 kts | 203° |
| 2026-05-04 00:52 | 30.47068 | -14.57389 | 35137 ft | 435 kts | 203° |
| 2026-05-04 00:52 | 30.41321 | -14.59493 | 35113 ft | 435 kts | 203° |
| 2026-05-04 00:53 | 30.35547 | -14.61603 | 35126 ft | 435 kts | 203° |
| 2026-05-04 00:53 | 30.29788 | -14.63706 | 35138 ft | 435 kts | 203° |
| 2026-05-04 00:54 | 30.23996 | -14.65817 | 35139 ft | 436 kts | 203° |
| 2026-05-04 00:54 | 30.18200 | -14.67928 | 35136 ft | 436 kts | 203° |
| 2026-05-04 00:55 | 30.12445 | -14.70021 | 35131 ft | 436 kts | 203° |
| 2026-05-04 00:55 | 30.06658 | -14.72123 | 35127 ft | 436 kts | 203° |
| 2026-05-04 00:56 | 30.00869 | -14.74223 | 35143 ft | 436 kts | 203° |
| 2026-05-04 00:56 | 29.95113 | -14.76309 | 35142 ft | 436 kts | 203° |
| 2026-05-04 00:57 | 29.89316 | -14.78407 | 35133 ft | 436 kts | 203° |
| 2026-05-04 00:57 | 29.83517 | -14.80504 | 35123 ft | 436 kts | 203° |
| 2026-05-04 00:58 | 29.77761 | -14.82582 | 35127 ft | 436 kts | 203° |
| 2026-05-04 00:58 | 29.71961 | -14.84655 | 35124 ft | 436 kts | 202° |
| 2026-05-04 00:58 | 29.69053 | -14.85562 | 34935 ft | 428 kts | 200° |
| 2026-05-04 00:59 | 29.66164 | -14.86391 | 34376 ft | 426 kts | 200° |
| 2026-05-04 00:59 | 29.63303 | -14.87191 | 33641 ft | 429 kts | 199° |
| 2026-05-04 00:59 | 29.60397 | -14.88003 | 33035 ft | 428 kts | 199° |
| 2026-05-04 00:59 | 29.57524 | -14.88810 | 32602 ft | 422 kts | 199° |
| 2026-05-04 01:00 | 29.54685 | -14.89616 | 32165 ft | 417 kts | 200° |
| 2026-05-04 01:00 | 29.51916 | -14.90408 | 31740 ft | 413 kts | 200° |
| 2026-05-04 01:00 | 29.49129 | -14.91211 | 31270 ft | 409 kts | 200° |
| 2026-05-04 01:00 | 29.46379 | -14.92006 | 30801 ft | 407 kts | 200° |
| 2026-05-04 01:01 | 29.43636 | -14.92800 | 30354 ft | 404 kts | 200° |
| 2026-05-04 01:01 | 29.40924 | -14.93585 | 29860 ft | 401 kts | 200° |
| 2026-05-04 01:01 | 29.38225 | -14.94367 | 29265 ft | 399 kts | 200° |
| 2026-05-04 01:01 | 29.35527 | -14.95150 | 27967 ft | 412 kts | 199° |
| 2026-05-04 01:02 | 29.32683 | -14.95981 | 26585 ft | 429 kts | 199° |
| 2026-05-04 01:02 | 29.29752 | -14.96833 | 25629 ft | 435 kts | 199° |
| 2026-05-04 01:02 | 29.26808 | -14.97680 | 25013 ft | 432 kts | 199° |
| 2026-05-04 01:02 | 29.23942 | -14.98500 | 24487 ft | 427 kts | 199° |
| 2026-05-04 01:03 | 29.21070 | -14.99322 | 23922 ft | 423 kts | 199° |
| 2026-05-04 01:03 | 29.18219 | -15.00139 | 23237 ft | 421 kts | 198° |
| 2026-05-04 01:03 | 29.15385 | -15.00954 | 22592 ft | 418 kts | 198° |
| 2026-05-04 01:03 | 29.12575 | -15.01760 | 22008 ft | 413 kts | 198° |
| 2026-05-04 01:04 | 29.09794 | -15.02559 | 21420 ft | 409 kts | 198° |
| 2026-05-04 01:04 | 29.07044 | -15.03348 | 20832 ft | 406 kts | 198° |
| 2026-05-04 01:04 | 29.04323 | -15.04131 | 19843 ft | 411 kts | 198° |
| 2026-05-04 01:04 | 29.01504 | -15.04945 | 18689 ft | 422 kts | 198° |
| 2026-05-04 01:05 | 28.98635 | -15.05771 | 17710 ft | 425 kts | 198° |
| 2026-05-04 01:05 | 28.95772 | -15.06591 | 16951 ft | 421 kts | 197° |
| 2026-05-04 01:05 | 28.92944 | -15.07398 | 16283 ft | 416 kts | 197° |
| 2026-05-04 01:05 | 28.90176 | -15.08188 | 15595 ft | 412 kts | 197° |
| 2026-05-04 01:06 | 28.87407 | -15.08978 | 14886 ft | 409 kts | 197° |
| 2026-05-04 01:06 | 28.84649 | -15.09767 | 14190 ft | 406 kts | 197° |
| 2026-05-04 01:06 | 28.81919 | -15.10547 | 13469 ft | 403 kts | 197° |
| 2026-05-04 01:06 | 28.79201 | -15.11323 | 12754 ft | 400 kts | 197° |
| 2026-05-04 01:07 | 28.76545 | -15.12082 | 12062 ft | 397 kts | 197° |
| 2026-05-04 01:07 | 28.73874 | -15.12844 | 11374 ft | 394 kts | 197° |
| 2026-05-04 01:07 | 28.71214 | -15.13603 | 10701 ft | 392 kts | 197° |
| 2026-05-04 01:07 | 28.68579 | -15.14354 | 10040 ft | 389 kts | 197° |
| 2026-05-04 01:08 | 28.65955 | -15.15102 | 9335 ft | 387 kts | 196° |
| 2026-05-04 01:08 | 28.63349 | -15.15845 | 8640 ft | 385 kts | 196° |
| 2026-05-04 01:08 | 28.60759 | -15.16582 | 7960 ft | 383 kts | 196° |
| 2026-05-04 01:08 | 28.58182 | -15.17315 | 7305 ft | 380 kts | 195° |
| 2026-05-04 01:09 | 28.55654 | -15.18034 | 6674 ft | 378 kts | 195° |
| 2026-05-04 01:09 | 28.53100 | -15.18760 | 6000 ft | 377 kts | 195° |
| 2026-05-04 01:09 | 28.50565 | -15.19481 | 5323 ft | 376 kts | 195° |
| 2026-05-04 01:09 | 28.48027 | -15.20202 | 4608 ft | 376 kts | 194° |
| 2026-05-04 01:10 | 28.45491 | -15.20921 | 3992 ft | 373 kts | 194° |
| 2026-05-04 01:10 | 28.43002 | -15.21627 | 3735 ft | 361 kts | 194° |
| 2026-05-04 01:10 | 28.40620 | -15.22302 | 3624 ft | 345 kts | 194° |
| 2026-05-04 01:10 | 28.38364 | -15.22941 | 3511 ft | 331 kts | 194° |
| 2026-05-04 01:11 | 28.36144 | -15.23569 | 3121 ft | 328 kts | 194° |
| 2026-05-04 01:11 | 28.33912 | -15.24202 | 2676 ft | 329 kts | 194° |
| 2026-05-04 01:11 | 28.31700 | -15.24828 | 2560 ft | 325 kts | 194° |
| 2026-05-04 01:11 | 28.29497 | -15.25451 | 2514 ft | 330 kts | 194° |
| 2026-05-04 01:12 | 28.27254 | -15.26086 | 2525 ft | 334 kts | 194° |
| 2026-05-04 01:12 | 28.25022 | -15.26716 | 2506 ft | 333 kts | 194° |
| 2026-05-04 01:12 | 28.22778 | -15.27350 | 2509 ft | 330 kts | 194° |
| 2026-05-04 01:12 | 28.20544 | -15.27981 | 2512 ft | 331 kts | 194° |
| 2026-05-04 01:13 | 28.18295 | -15.28616 | 2505 ft | 332 kts | 194° |
| 2026-05-04 01:13 | 28.16047 | -15.29251 | 2503 ft | 333 kts | 194° |
| 2026-05-04 01:13 | 28.13799 | -15.29885 | 2488 ft | 331 kts | 193° |
| 2026-05-04 01:13 | 28.11665 | -15.30499 | 2474 ft | 305 kts | 197° |
| 2026-05-04 01:14 | 28.09802 | -15.31272 | 2472 ft | 267 kts | 203° |
| 2026-05-04 01:14 | 28.08186 | -15.32025 | 2465 ft | 237 kts | 202° |
| 2026-05-04 01:14 | 28.06731 | -15.32673 | 2457 ft | 212 kts | 202° |
| 2026-05-04 01:14 | 28.05394 | -15.33262 | 2369 ft | 205 kts | 201° |
| 2026-05-04 01:15 | 28.04077 | -15.33844 | 2104 ft | 200 kts | 201° |
| 2026-05-04 01:15 | 28.02797 | -15.34411 | 1824 ft | 194 kts | 202° |
| 2026-05-04 01:15 | 28.01579 | -15.34956 | 1562 ft | 189 kts | 202° |
| 2026-05-04 01:15 | 28.00393 | -15.35451 | 1406 ft | 174 kts | 200° |
| 2026-05-04 01:16 | 27.99294 | -15.35895 | 1200 ft | 162 kts | 202° |
| 2026-05-04 01:16 | 27.98274 | -15.36347 | 984 ft | 150 kts | 204° |
| 2026-05-04 01:16 | 27.97363 | -15.36797 | 731 ft | 145 kts | 205° |
| 2026-05-04 01:16 | 27.96368 | -15.37225 | 537 ft | 157 kts | 201° |
| 2026-05-04 01:17 | 27.95346 | -15.37688 | 282 ft | 157 kts | 206° |
| 2026-05-04 01:17 | 27.94343 | -15.38143 | 109 ft | 155 kts | 204° |
| 2026-05-04 01:17 | 27.93417 | -15.38558 | 57 ft | 123 kts | 200° |
| 2026-05-04 01:17 | 27.92825 | -15.38816 | 66 ft | 60 kts | 201° |
| 2026-05-04 01:18 | 27.92576 | -15.38925 | 70 ft | 17 kts | 203° |
| 2026-05-04 01:18 | 27.92551 | -15.38937 | 67 ft | 7 kts | 202° |
| 2026-05-04 01:18 | 27.92529 | -15.38948 | 71 ft | 0 kts | 204° |
| 2026-05-04 01:18 | 27.92492 | -15.38965 | 71 ft | 12 kts | 202° |
| 2026-05-04 01:19 | 27.92302 | -15.39049 | 76 ft | 40 kts | 200° |
| 2026-05-04 01:19 | 27.92053 | -15.39159 | 84 ft | 33 kts | 201° |
| 2026-05-04 01:19 | 27.91939 | -15.39278 | 89 ft | 22 kts | 306° |
| 2026-05-04 01:19 | 27.92030 | -15.39300 | 92 ft | 0 kts | 357° |
| 2026-05-04 01:20 | 27.92141 | -15.39304 | 95 ft | 28 kts | 4° |
| 2026-05-04 01:20 | 27.92406 | -15.39204 | 95 ft | 52 kts | 21° |
| 2026-05-04 01:20 | 27.92898 | -15.38987 | 82 ft | 101 kts | 22° |
| 2026-05-04 01:20 | 27.93261 | -15.38820 | 72 ft | 33 kts | 18° |
| 2026-05-04 01:21 | 27.93434 | -15.38827 | 81 ft | 28 kts | 341° |
| 2026-05-04 01:21 | 27.93571 | -15.38929 | 85 ft | 11 kts | 289° |
| 2026-05-04 01:21 | 27.93574 | -15.38937 | 84 ft | 0 kts | 289° |
| 2026-05-04 01:21 | 27.93574 | -15.38939 | 85 ft | 0 kts | 290° |